Guthrie, Minnesota
Current Conditions -  °F | °C
As of 3:35 PM on Wednesday 17 Dec 2014 (Local Time) from KY49 Reporting Station
Clear Clear  
Wind Chill: 13°   Ceiling: Unl
Heat Index: 19°   Visibility: 10mi
Dew Point: 10°   Wind: 5mph
Humidity: 69%   Direction: 10°N
Pressure: 30.27"   Gusts: NA
Location:  47.2392°N, 94.7928°W
Report Text: KY49 172135Z AUTO 01004KT 10SM CLR M07/M12 A3027 RMK AO2 T10711120
Loading
Personal Weather Stations






























Interactive Weather Map New forecast layout! Learn more

10-Day Weather Forecast

Advertisements
Track Severe Weather on mobile